createdAt,value
2017-02-23T00:00:18.280Z,21.32
2017-02-23T00:01:27.845Z,21.27
2017-02-23T00:02:37.055Z,21.24
2017-02-23T00:03:46.550Z,21.32
2017-02-23T00:04:56.462Z,21.22
2017-02-23T00:06:06.787Z,21.3
2017-02-23T00:07:15.968Z,21.33
2017-02-23T00:08:25.920Z,21.27
2017-02-23T00:09:35.870Z,21.37
2017-02-23T00:10:45.820Z,21.3
2017-02-23T00:11:54.628Z,21.24
2017-02-23T00:13:03.803Z,21.25
2017-02-23T00:14:12.982Z,21.22
2017-02-23T00:15:22.163Z,21.24
2017-02-23T00:16:31.746Z,21.22
2017-02-23T00:17:40.549Z,21.33
2017-02-23T00:18:49.749Z,21.21
2017-02-23T00:19:58.884Z,21.21
2017-02-23T00:21:08.441Z,21.24
2017-02-23T00:22:18.221Z,21.29
2017-02-23T00:23:27.804Z,21.2
2017-02-23T00:24:37.381Z,21.24
2017-02-23T00:25:46.562Z,21.24
2017-02-23T00:26:55.720Z,21.21
2017-02-23T00:28:05.290Z,21.21
2017-02-23T00:29:14.461Z,21.21
2017-02-23T00:30:24.378Z,21.18
2017-02-23T00:31:34.710Z,21.2
2017-02-23T00:32:43.507Z,21.21
2017-02-23T00:33:52.662Z,21.2
2017-02-23T00:35:02.611Z,21.22
2017-02-23T00:36:12.949Z,21.17
2017-02-23T00:37:22.898Z,21.17
2017-02-23T00:38:32.085Z,21.21
2017-02-23T00:39:41.653Z,21.21
2017-02-23T00:40:51.199Z,21.25
2017-02-23T00:42:00.412Z,21.18
2017-02-23T00:43:09.975Z,21.18
2017-02-23T00:44:19.930Z,21.21
2017-02-23T00:45:29.104Z,21.15
2017-02-23T00:46:39.049Z,21.06
2017-02-23T00:47:48.953Z,21.09
2017-02-23T00:48:58.870Z,21.06
2017-02-23T00:50:07.666Z,21.14
2017-02-23T00:51:17.185Z,21.18
2017-02-23T00:52:26.328Z,21.2
2017-02-23T00:53:35.507Z,21.06
2017-02-23T00:54:45.459Z,21.09
2017-02-23T00:55:54.620Z,21.11
2017-02-23T00:57:04.131Z,21.14
2017-02-23T00:58:13.669Z,21.12
2017-02-23T00:59:24.055Z,21.06
2017-02-23T01:00:33.607Z,21.17
2017-02-23T01:01:43.960Z,21.11
2017-02-23T01:02:53.491Z,21.15
2017-02-23T01:04:03.029Z,21.12
2017-02-23T01:05:11.826Z,21.07
2017-02-23T01:06:22.119Z,21.12
2017-02-23T01:07:31.264Z,21.09
2017-02-23T01:08:40.827Z,21.05
2017-02-23T01:09:49.991Z,21.06
2017-02-23T01:10:59.558Z,21.05
2017-02-23T01:12:08.718Z,21.07
2017-02-23T01:13:18.672Z,21.09
2017-02-23T01:14:28.195Z,20.96
2017-02-23T01:15:38.105Z,21.12
2017-02-23T01:16:47.661Z,21.02
2017-02-23T01:17:57.608Z,21.06
2017-02-23T01:19:07.138Z,21.05
2017-02-23T01:20:16.879Z,21.03
2017-02-23T01:21:26.019Z,21.02
2017-02-23T01:22:35.908Z,21.05
2017-02-23T01:23:45.463Z,21
2017-02-23T01:24:54.252Z,21.03
2017-02-23T01:26:03.807Z,21.02
2017-02-23T01:27:12.606Z,21
2017-02-23T01:28:21.750Z,20.99
2017-02-23T01:29:31.277Z,20.95
2017-02-23T01:30:41.195Z,21
2017-02-23T01:31:51.490Z,20.97
2017-02-23T01:33:01.788Z,20.97
2017-02-23T01:34:12.088Z,20.97
2017-02-23T01:35:22.021Z,21.02
2017-02-23T01:36:31.578Z,21.03
2017-02-23T01:37:41.236Z,20.99
2017-02-23T01:38:50.051Z,21
2017-02-23T01:39:59.959Z,21.02
2017-02-23T01:41:10.272Z,20.92
2017-02-23T01:42:19.027Z,20.93
2017-02-23T01:43:28.956Z,20.9
2017-02-23T01:44:38.521Z,20.93
2017-02-23T01:45:48.486Z,20.97
2017-02-23T01:46:58.438Z,20.95
2017-02-23T01:48:08.003Z,20.9
2017-02-23T01:49:17.173Z,20.9
2017-02-23T01:50:27.122Z,20.99
2017-02-23T01:51:36.682Z,20.96
2017-02-23T01:52:46.193Z,20.92
2017-02-23T01:53:54.946Z,20.95
2017-02-23T01:55:04.904Z,20.95
2017-02-23T01:56:14.472Z,20.97
2017-02-23T01:57:24.820Z,20.92
2017-02-23T01:58:33.985Z,20.92
2017-02-23T01:59:43.557Z,20.92
2017-02-23T02:00:52.773Z,20.96
2017-02-23T02:02:02.706Z,20.9
2017-02-23T02:03:11.890Z,20.93
2017-02-23T02:04:21.484Z,20.92
2017-02-23T02:05:31.430Z,20.85
2017-02-23T02:06:40.603Z,20.93
2017-02-23T02:07:49.741Z,20.92
2017-02-23T02:09:00.039Z,20.82
2017-02-23T02:10:09.187Z,20.9
2017-02-23T02:11:18.306Z,20.88
2017-02-23T02:12:28.998Z,20.9
2017-02-23T02:13:38.180Z,20.87
2017-02-23T02:14:47.405Z,20.85
2017-02-23T02:15:57.353Z,20.85
2017-02-23T02:17:07.334Z,20.85
2017-02-23T02:18:17.281Z,20.9
2017-02-23T02:19:26.456Z,20.82
2017-02-23T02:20:35.981Z,20.85
2017-02-23T02:21:45.536Z,20.85
2017-02-23T02:22:55.096Z,20.84
2017-02-23T02:24:05.035Z,20.82
2017-02-23T02:25:14.603Z,20.85
2017-02-23T02:26:24.157Z,20.85
2017-02-23T02:27:34.116Z,20.84
2017-02-23T02:28:43.704Z,20.75
2017-02-23T02:29:52.893Z,20.9
2017-02-23T02:31:02.071Z,20.82
2017-02-23T02:32:11.989Z,20.84
2017-02-23T02:33:21.532Z,20.8
2017-02-23T02:34:31.091Z,20.85
2017-02-23T02:35:39.843Z,20.77
2017-02-23T02:36:48.564Z,20.81
2017-02-23T02:37:58.499Z,20.77
2017-02-23T02:39:08.407Z,20.8
2017-02-23T02:40:18.341Z,20.72
2017-02-23T02:41:28.310Z,20.81
2017-02-23T02:42:37.843Z,20.74
2017-02-23T02:43:47.400Z,20.78
2017-02-23T02:44:57.355Z,20.77
2017-02-23T02:46:07.300Z,20.84
2017-02-23T02:47:17.264Z,20.85
2017-02-23T02:48:26.057Z,20.84
2017-02-23T02:49:36.224Z,20.81
2017-02-23T02:50:46.177Z,20.84
2017-02-23T02:51:56.527Z,20.78
2017-02-23T02:53:06.470Z,20.78
2017-02-23T02:54:16.020Z,20.72
2017-02-23T02:55:24.816Z,20.69
2017-02-23T02:56:34.765Z,20.8
2017-02-23T02:57:45.097Z,20.77
2017-02-23T02:58:55.847Z,20.75
2017-02-23T03:00:05.016Z,20.75
2017-02-23T03:01:14.973Z,20.72
2017-02-23T03:02:24.492Z,20.75
2017-02-23T03:03:34.033Z,20.75
2017-02-23T03:04:43.976Z,20.74
2017-02-23T03:05:53.189Z,20.67
2017-02-23T03:07:02.390Z,20.72
2017-02-23T03:08:11.956Z,20.7
2017-02-23T03:09:21.137Z,20.72
2017-02-23T03:10:30.718Z,20.62
2017-02-23T03:11:40.277Z,20.65
2017-02-23T03:12:49.830Z,20.7
2017-02-23T03:13:59.764Z,20.69
2017-02-23T03:15:09.288Z,20.8
2017-02-23T03:16:19.234Z,20.8
2017-02-23T03:17:28.790Z,20.66
2017-02-23T03:18:37.914Z,20.69
2017-02-23T03:19:47.458Z,20.65
2017-02-23T03:20:56.630Z,20.7
2017-02-23T03:22:07.001Z,20.74
2017-02-23T03:23:16.577Z,20.65
2017-02-23T03:24:26.139Z,20.7
2017-02-23T03:25:35.740Z,20.62
2017-02-23T03:26:46.462Z,20.62
2017-02-23T03:27:56.434Z,20.67
2017-02-23T03:29:06.374Z,20.62
2017-02-23T03:30:15.553Z,20.63
2017-02-23T03:31:25.507Z,20.66
2017-02-23T03:32:35.808Z,20.7
2017-02-23T03:33:45.337Z,20.69
2017-02-23T03:34:54.899Z,20.67
2017-02-23T03:36:04.093Z,20.66
2017-02-23T03:37:13.229Z,20.67
2017-02-23T03:38:21.996Z,20.69
2017-02-23T03:39:31.935Z,20.62
2017-02-23T03:40:41.598Z,20.56
2017-02-23T03:41:51.932Z,20.74
2017-02-23T03:43:01.496Z,20.63
2017-02-23T03:44:11.856Z,20.65
2017-02-23T03:45:21.816Z,20.58
2017-02-23T03:46:32.143Z,20.66
2017-02-23T03:47:41.711Z,20.65
2017-02-23T03:48:51.661Z,20.6
2017-02-23T03:50:01.231Z,20.62
2017-02-23T03:51:11.961Z,20.6
2017-02-23T03:52:20.755Z,20.65
2017-02-23T03:53:30.708Z,20.62
2017-02-23T03:54:40.678Z,20.6
2017-02-23T03:55:50.241Z,20.58
2017-02-23T03:56:59.764Z,20.65
2017-02-23T03:58:08.911Z,20.58
2017-02-23T03:59:18.103Z,20.65
2017-02-23T04:00:27.310Z,20.59
2017-02-23T04:01:37.216Z,20.59
2017-02-23T04:02:46.392Z,20.51
2017-02-23T04:03:56.417Z,20.63
2017-02-23T04:05:05.598Z,20.63
2017-02-23T04:06:14.392Z,20.58
2017-02-23T04:07:24.380Z,20.56
2017-02-23T04:08:34.329Z,20.48
2017-02-23T04:09:43.518Z,20.52
2017-02-23T04:10:53.083Z,20.47
2017-02-23T04:12:02.619Z,20.59
2017-02-23T04:13:12.965Z,20.59
2017-02-23T04:14:22.881Z,20.52
2017-02-23T04:15:32.437Z,20.5
2017-02-23T04:16:41.993Z,20.62
2017-02-23T04:17:51.157Z,20.6
2017-02-23T04:19:01.848Z,20.56
2017-02-23T04:20:11.774Z,20.62
2017-02-23T04:21:21.721Z,20.59
2017-02-23T04:22:31.274Z,20.6
2017-02-23T04:23:40.468Z,20.63
2017-02-23T04:24:50.053Z,20.62
2017-02-23T04:25:59.606Z,20.6
2017-02-23T04:27:08.775Z,20.63
2017-02-23T04:28:18.717Z,20.44
2017-02-23T04:29:28.676Z,20.59
2017-02-23T04:30:38.633Z,20.56
2017-02-23T04:31:48.551Z,20.62
2017-02-23T04:32:58.850Z,20.59
2017-02-23T04:34:08.770Z,20.58
2017-02-23T04:35:17.927Z,20.41
2017-02-23T04:36:27.874Z,20.6
2017-02-23T04:37:37.809Z,20.58
2017-02-23T04:38:47.771Z,20.48
2017-02-23T04:39:57.328Z,20.56
2017-02-23T04:41:06.860Z,20.58
2017-02-23T04:42:16.415Z,20.55
2017-02-23T04:43:25.994Z,20.52
2017-02-23T04:44:35.968Z,20.51
2017-02-23T04:45:45.482Z,20.48
2017-02-23T04:46:55.025Z,20.47
2017-02-23T04:48:04.614Z,20.51
2017-02-23T04:49:14.130Z,20.59
2017-02-23T04:50:23.695Z,20.6
2017-02-23T04:51:33.246Z,20.63
2017-02-23T04:52:42.777Z,20.59
2017-02-23T04:53:52.335Z,20.62
2017-02-23T04:55:01.909Z,20.58
2017-02-23T04:56:11.863Z,20.6
2017-02-23T04:57:20.632Z,20.5
2017-02-23T04:58:29.808Z,20.62
2017-02-23T04:59:39.396Z,20.56
2017-02-23T05:00:48.986Z,20.56
2017-02-23T05:01:59.151Z,20.65
2017-02-23T05:03:09.107Z,20.69
2017-02-23T05:04:18.651Z,20.62
2017-02-23T05:05:28.140Z,20.59
2017-02-23T05:06:38.202Z,20.69
2017-02-23T05:07:48.143Z,20.66
2017-02-23T05:08:57.727Z,20.66
2017-02-23T05:10:07.679Z,20.7
2017-02-23T05:11:17.265Z,20.63
2017-02-23T05:12:27.606Z,20.66
2017-02-23T05:13:37.569Z,20.72
2017-02-23T05:14:47.904Z,20.7
2017-02-23T05:15:58.236Z,20.74
2017-02-23T05:17:07.818Z,20.72
2017-02-23T05:18:16.992Z,20.81
2017-02-23T05:19:26.893Z,20.8
2017-02-23T05:20:37.114Z,20.75
2017-02-23T05:21:47.069Z,20.8
2017-02-23T05:22:56.637Z,20.81
2017-02-23T05:24:06.575Z,20.81
2017-02-23T05:25:15.750Z,20.8
2017-02-23T05:26:26.095Z,20.84
2017-02-23T05:27:35.648Z,20.84
2017-02-23T05:28:45.235Z,20.84
2017-02-23T05:29:55.179Z,20.82
2017-02-23T05:31:05.112Z,20.95
2017-02-23T05:32:15.040Z,20.96
2017-02-23T05:33:25.749Z,20.87
2017-02-23T05:34:34.936Z,20.97
2017-02-23T05:35:44.122Z,20.93
2017-02-23T05:36:54.467Z,20.92
2017-02-23T05:38:04.821Z,20.88
2017-02-23T05:39:14.351Z,20.92
2017-02-23T05:40:24.271Z,21.02
2017-02-23T05:41:34.215Z,21.02
2017-02-23T05:42:43.781Z,20.99
2017-02-23T05:43:52.961Z,20.95
2017-02-23T05:45:02.158Z,20.96
2017-02-23T05:46:11.675Z,21
2017-02-23T05:47:21.986Z,21.05
2017-02-23T05:48:31.933Z,21.09
2017-02-23T05:49:42.669Z,21.06
2017-02-23T05:50:52.627Z,21.09
2017-02-23T05:52:03.335Z,21.09
2017-02-23T05:53:12.506Z,21.09
2017-02-23T05:54:21.681Z,21.07
2017-02-23T05:55:31.200Z,21.11
2017-02-23T05:56:40.349Z,21.14
2017-02-23T05:57:49.928Z,21.12
2017-02-23T05:58:59.838Z,21.07
2017-02-23T06:00:09.334Z,21.21
2017-02-23T06:01:19.240Z,21.09
2017-02-23T06:02:28.741Z,21.18
2017-02-23T06:03:38.270Z,21.2
2017-02-23T06:04:47.837Z,21.29
2017-02-23T06:05:57.412Z,21.17
2017-02-23T06:07:06.581Z,21.22
2017-02-23T06:08:16.158Z,21.21
2017-02-23T06:09:25.294Z,21.24
2017-02-23T06:10:35.167Z,21.27
2017-02-23T06:11:44.720Z,21.22
2017-02-23T06:12:54.319Z,21.24
2017-02-23T06:14:05.019Z,21.22
2017-02-23T06:15:14.537Z,21.27
2017-02-23T06:16:24.833Z,21.24
2017-02-23T06:17:34.389Z,21.22
2017-02-23T06:18:43.912Z,21.33
2017-02-23T06:19:53.435Z,21.24
2017-02-23T06:21:03.323Z,21.32
2017-02-23T06:22:13.229Z,21.24
2017-02-23T06:23:22.798Z,21.36
2017-02-23T06:24:32.361Z,21.3
2017-02-23T06:25:41.933Z,21.33
2017-02-23T06:26:50.715Z,21.36
2017-02-23T06:28:00.278Z,21.36
2017-02-23T06:29:09.837Z,21.35
2017-02-23T06:30:19.770Z,21.37
2017-02-23T06:31:29.814Z,21.27
2017-02-23T06:32:39.765Z,21.3
2017-02-23T06:33:49.336Z,21.36
2017-02-23T06:34:59.309Z,21.27
2017-02-23T06:36:08.862Z,21.33
2017-02-23T06:37:18.448Z,21.32
2017-02-23T06:38:28.035Z,21.33
2017-02-23T06:39:37.619Z,21.36
2017-02-23T06:40:46.420Z,21.42
2017-02-23T06:41:55.596Z,21.39
2017-02-23T06:43:05.185Z,21.39
2017-02-23T06:44:14.750Z,21.42
2017-02-23T06:45:24.699Z,21.39
2017-02-23T06:46:34.650Z,21.43
2017-02-23T06:47:44.213Z,21.39
2017-02-23T06:48:54.169Z,21.42
2017-02-23T06:50:03.349Z,21.4
2017-02-23T06:51:12.549Z,21.39
2017-02-23T06:52:22.860Z,21.43
2017-02-23T06:53:32.826Z,21.5
2017-02-23T06:54:42.768Z,21.45
2017-02-23T06:55:52.582Z,21.45
2017-02-23T06:57:01.370Z,21.43
2017-02-23T06:58:10.929Z,21.45
2017-02-23T06:59:21.264Z,21.48
2017-02-23T07:00:31.608Z,21.5
2017-02-23T07:01:40.781Z,21.46
2017-02-23T07:02:50.736Z,21.54
2017-02-23T07:04:00.322Z,21.48
2017-02-23T07:05:10.290Z,21.55
2017-02-23T07:06:19.487Z,21.48
2017-02-23T07:07:29.465Z,21.57
2017-02-23T07:08:39.048Z,21.55
2017-02-23T07:09:48.217Z,21.57
2017-02-23T07:10:58.162Z,21.52
2017-02-23T07:12:07.781Z,21.52
2017-02-23T07:13:16.957Z,21.52
2017-02-23T07:14:26.905Z,21.57
2017-02-23T07:15:37.619Z,21.57
2017-02-23T07:16:47.550Z,21.57
2017-02-23T07:17:57.070Z,21.57
2017-02-23T07:19:06.984Z,21.54
2017-02-23T07:20:16.562Z,21.57
2017-02-23T07:21:26.148Z,21.62
2017-02-23T07:22:36.887Z,21.55
2017-02-23T07:23:46.032Z,21.61
2017-02-23T07:24:55.954Z,21.64
2017-02-23T07:26:06.311Z,21.61
2017-02-23T07:27:15.488Z,21.62
2017-02-23T07:28:24.705Z,21.6
2017-02-23T07:29:34.286Z,21.62
2017-02-23T07:30:43.472Z,21.62
2017-02-23T07:31:52.260Z,21.62
2017-02-23T07:33:02.961Z,21.62
2017-02-23T07:34:12.889Z,21.6
2017-02-23T07:35:22.030Z,21.69
2017-02-23T07:36:31.944Z,21.58
2017-02-23T07:37:41.246Z,21.61
2017-02-23T07:38:50.815Z,21.58
2017-02-23T07:40:00.765Z,21.61
2017-02-23T07:41:11.080Z,21.57
2017-02-23T07:42:20.677Z,21.6
2017-02-23T07:43:30.620Z,21.69
2017-02-23T07:44:40.900Z,21.69
2017-02-23T07:45:50.851Z,21.66
2017-02-23T07:47:00.427Z,21.66
2017-02-23T07:48:10.382Z,21.64
2017-02-23T07:49:19.168Z,21.69
2017-02-23T07:50:29.525Z,21.69
2017-02-23T07:51:38.730Z,21.75
2017-02-23T07:52:48.295Z,21.72
2017-02-23T07:53:58.250Z,21.73
2017-02-23T07:55:08.195Z,21.67
2017-02-23T07:56:18.553Z,21.69
2017-02-23T07:57:28.135Z,21.73
2017-02-23T07:58:37.706Z,21.72
2017-02-23T07:59:48.043Z,21.69
2017-02-23T08:00:57.990Z,21.66
2017-02-23T08:02:07.191Z,21.64
2017-02-23T08:03:15.968Z,21.69
2017-02-23T08:04:25.150Z,21.7
2017-02-23T08:05:34.725Z,21.76
2017-02-23T08:06:45.077Z,21.75
2017-02-23T08:07:54.583Z,21.75
2017-02-23T08:09:04.135Z,21.76
2017-02-23T08:10:13.728Z,21.7
2017-02-23T08:11:24.059Z,21.7
2017-02-23T08:12:33.236Z,21.77
2017-02-23T08:13:42.424Z,21.73
2017-02-23T08:14:51.944Z,21.67
2017-02-23T08:16:01.856Z,21.73
2017-02-23T08:17:11.814Z,21.77
2017-02-23T08:18:22.155Z,21.72
2017-02-23T08:19:31.344Z,21.73
2017-02-23T08:20:41.889Z,21.75
2017-02-23T08:21:51.080Z,21.69
2017-02-23T08:23:01.041Z,21.73
2017-02-23T08:24:10.178Z,21.73
2017-02-23T08:25:19.729Z,21.75
2017-02-23T08:26:29.271Z,21.67
2017-02-23T08:27:38.856Z,21.76
2017-02-23T08:28:48.053Z,21.77
2017-02-23T08:29:56.847Z,21.79
2017-02-23T08:31:06.025Z,21.7
2017-02-23T08:32:15.158Z,21.69
2017-02-23T08:33:24.633Z,21.73
2017-02-23T08:34:34.561Z,21.77
2017-02-23T08:35:44.225Z,21.7
2017-02-23T08:36:53.806Z,21.75
2017-02-23T08:38:03.763Z,21.77
2017-02-23T08:39:13.313Z,21.82
2017-02-23T08:40:23.291Z,21.77
2017-02-23T08:41:32.847Z,21.73
2017-02-23T08:42:42.782Z,21.76
2017-02-23T08:43:52.707Z,21.7
2017-02-23T08:45:03.000Z,21.73
2017-02-23T08:46:11.797Z,21.79
2017-02-23T08:47:21.732Z,21.79
2017-02-23T08:48:32.077Z,21.82
2017-02-23T08:49:41.249Z,21.72
2017-02-23T08:50:50.844Z,21.82
2017-02-23T08:52:01.220Z,21.72
2017-02-23T08:53:10.763Z,21.75
2017-02-23T08:54:20.680Z,21.75
2017-02-23T08:55:30.272Z,21.82
2017-02-23T08:56:39.860Z,21.8
2017-02-23T08:57:49.074Z,21.83
2017-02-23T08:58:59.413Z,21.83
2017-02-23T09:00:08.589Z,21.88
2017-02-23T09:01:17.768Z,21.8
2017-02-23T09:02:27.324Z,21.88
2017-02-23T09:03:36.506Z,21.89
2017-02-23T09:04:46.459Z,21.89
2017-02-23T09:05:56.019Z,21.79
2017-02-23T09:07:05.190Z,21.89
2017-02-23T09:08:14.376Z,21.8
2017-02-23T09:09:24.337Z,21.93
2017-02-23T09:10:33.531Z,21.92
2017-02-23T09:11:43.121Z,21.92
2017-02-23T09:12:52.720Z,21.91
2017-02-23T09:14:02.601Z,21.83
2017-02-23T09:15:12.526Z,21.88
2017-02-23T09:16:21.703Z,21.85
2017-02-23T09:17:30.504Z,21.85
2017-02-23T09:18:40.073Z,21.83
2017-02-23T09:19:50.117Z,21.92
2017-02-23T09:20:59.276Z,21.88
2017-02-23T09:22:09.620Z,21.83
2017-02-23T09:23:19.574Z,21.85
2017-02-23T09:24:28.760Z,21.95
2017-02-23T09:25:39.120Z,21.82
2017-02-23T09:26:48.690Z,21.89
2017-02-23T09:27:59.038Z,21.83
2017-02-23T09:29:08.217Z,21.88
2017-02-23T09:30:17.408Z,21.91
2017-02-23T09:31:27.744Z,21.92
2017-02-23T09:32:37.297Z,21.89
2017-02-23T09:33:47.894Z,21.88
2017-02-23T09:34:57.062Z,21.85
2017-02-23T09:36:06.241Z,21.88
2017-02-23T09:37:15.807Z,21.88
2017-02-23T09:38:25.758Z,21.82
2017-02-23T09:39:34.926Z,21.82
2017-02-23T09:40:44.881Z,21.88
2017-02-23T09:41:54.069Z,21.89
2017-02-23T09:43:03.628Z,21.85
2017-02-23T09:44:12.841Z,21.91
2017-02-23T09:45:22.800Z,21.89
2017-02-23T09:46:31.997Z,21.83
2017-02-23T09:47:41.916Z,21.85
2017-02-23T09:48:51.068Z,21.85
2017-02-23T09:50:00.292Z,21.88
2017-02-23T09:51:10.242Z,21.91
2017-02-23T09:52:19.828Z,21.91
2017-02-23T09:53:29.027Z,21.88
2017-02-23T09:54:38.977Z,21.88
2017-02-23T09:55:49.409Z,21.77
2017-02-23T09:56:58.618Z,21.91
2017-02-23T09:58:08.923Z,21.89
2017-02-23T09:59:18.468Z,21.92
2017-02-23T10:00:28.423Z,21.89
2017-02-23T10:01:38.343Z,21.89
2017-02-23T10:02:47.518Z,21.88
2017-02-23T10:03:57.505Z,21.8
2017-02-23T10:05:07.205Z,21.82
2017-02-23T10:06:16.763Z,21.83
2017-02-23T10:07:27.482Z,21.83
2017-02-23T10:08:37.379Z,21.82
2017-02-23T10:09:47.171Z,21.88
2017-02-23T10:10:56.691Z,21.82
2017-02-23T10:12:05.462Z,21.88
2017-02-23T10:13:14.644Z,21.83
2017-02-23T10:14:24.219Z,21.83
2017-02-23T10:15:33.789Z,21.85
2017-02-23T10:16:42.580Z,21.91
2017-02-23T10:17:51.769Z,21.89
2017-02-23T10:19:00.961Z,21.89
2017-02-23T10:20:10.543Z,21.91
2017-02-23T10:21:20.129Z,21.92
2017-02-23T10:22:28.907Z,21.89
2017-02-23T10:23:38.900Z,21.82
2017-02-23T10:24:48.868Z,21.91
2017-02-23T10:25:58.812Z,21.95
2017-02-23T10:27:08.766Z,21.89
2017-02-23T10:28:18.708Z,21.95
2017-02-23T10:29:28.292Z,21.93
2017-02-23T10:30:37.850Z,21.95
2017-02-23T10:31:47.675Z,21.95
2017-02-23T10:32:56.846Z,21.89
2017-02-23T10:34:06.817Z,21.96
2017-02-23T10:35:16.747Z,21.89
2017-02-23T10:36:26.284Z,21.92
2017-02-23T10:37:36.240Z,21.93
2017-02-23T10:38:46.208Z,21.95
2017-02-23T10:39:55.387Z,21.98
2017-02-23T10:41:05.737Z,21.95
2017-02-23T10:42:15.296Z,21.93
2017-02-23T10:43:24.829Z,21.95
2017-02-23T10:44:35.158Z,21.95
2017-02-23T10:45:43.943Z,21.95
2017-02-23T10:46:53.163Z,22
2017-02-23T10:48:02.363Z,21.92
2017-02-23T10:49:11.917Z,21.96
2017-02-23T10:50:21.116Z,21.95
2017-02-23T10:51:30.296Z,21.95
2017-02-23T10:52:39.483Z,22.02
2017-02-23T10:53:49.421Z,21.96
2017-02-23T10:54:58.215Z,21.99
2017-02-23T10:56:08.551Z,21.96
2017-02-23T10:57:17.754Z,22.02
2017-02-23T10:58:27.676Z,21.95
2017-02-23T10:59:36.862Z,21.98
2017-02-23T11:00:46.389Z,22
2017-02-23T11:01:55.932Z,21.96
2017-02-23T11:03:05.556Z,22.04
2017-02-23T11:04:15.520Z,21.98
2017-02-23T11:05:24.701Z,21.99
2017-02-23T11:06:33.852Z,21.99
2017-02-23T11:07:44.105Z,21.96
2017-02-23T11:08:54.047Z,21.95
2017-02-23T11:10:03.623Z,21.96
2017-02-23T11:11:13.217Z,22.07
2017-02-23T11:12:22.389Z,22.08
2017-02-23T11:13:31.989Z,22.08
2017-02-23T11:14:41.965Z,22.1
2017-02-23T11:15:51.523Z,22.06
2017-02-23T11:17:01.478Z,22.06
2017-02-23T11:18:10.279Z,22.1
2017-02-23T11:19:19.833Z,22.07
2017-02-23T11:20:29.345Z,22.08
2017-02-23T11:21:38.504Z,22.07
2017-02-23T11:22:48.435Z,22.04
2017-02-23T11:23:58.033Z,22.13
2017-02-23T11:25:08.755Z,22.11
2017-02-23T11:26:17.912Z,22.11
2017-02-23T11:27:27.110Z,22.06
2017-02-23T11:28:37.029Z,22.13
2017-02-23T11:29:46.527Z,22.15
2017-02-23T11:30:55.246Z,22.07
2017-02-23T11:32:04.796Z,22.17
2017-02-23T11:33:14.715Z,22.11
2017-02-23T11:34:24.253Z,22.15
2017-02-23T11:35:33.039Z,22.2
2017-02-23T11:36:42.964Z,22.08
2017-02-23T11:37:52.541Z,22.13
2017-02-23T11:39:02.507Z,22.13
2017-02-23T11:40:11.710Z,22.11
2017-02-23T11:41:20.932Z,22.08
2017-02-23T11:42:30.109Z,22.14
2017-02-23T11:43:39.676Z,22.06
2017-02-23T11:44:49.239Z,22.11
2017-02-23T11:45:59.202Z,22.1
2017-02-23T11:47:09.540Z,22.15
2017-02-23T11:48:18.362Z,22.11
2017-02-23T11:49:28.697Z,22.18
2017-02-23T11:50:38.283Z,22.18
2017-02-23T11:51:47.866Z,22.2
2017-02-23T11:52:57.448Z,22.15
2017-02-23T11:54:07.031Z,22.18
2017-02-23T11:55:17.337Z,22.22
2017-02-23T11:56:28.028Z,22.14
2017-02-23T11:57:37.607Z,22.14
2017-02-23T11:58:46.790Z,22.15
2017-02-23T11:59:56.361Z,22.1
2017-02-23T12:01:05.535Z,22.06
2017-02-23T12:02:15.132Z,22.13
2017-02-23T12:03:24.288Z,22.07
2017-02-23T12:04:34.209Z,22.06
2017-02-23T12:05:43.396Z,22.08
2017-02-23T12:06:52.956Z,22.06
2017-02-23T12:08:02.541Z,22.15
2017-02-23T12:09:12.518Z,22.06
2017-02-23T12:10:22.283Z,22.04
2017-02-23T12:11:32.237Z,22.13
2017-02-23T12:12:42.155Z,22.1
2017-02-23T12:13:51.265Z,22.17
2017-02-23T12:15:01.195Z,22.25
2017-02-23T12:16:11.140Z,22.18
2017-02-23T12:17:20.307Z,22.2
2017-02-23T12:18:29.106Z,22.17
2017-02-23T12:19:38.686Z,22.25
2017-02-23T12:20:49.146Z,22.25
2017-02-23T12:21:59.118Z,22.29
2017-02-23T12:23:08.298Z,22.41
2017-02-23T12:24:17.529Z,22.32
2017-02-23T12:25:26.710Z,22.47
2017-02-23T12:26:36.668Z,22.44
2017-02-23T12:27:46.263Z,22.5
2017-02-23T12:28:55.829Z,22.59
2017-02-23T12:30:04.961Z,22.54
2017-02-23T12:31:13.719Z,22.54
2017-02-23T12:32:22.910Z,22.62
2017-02-23T12:33:32.476Z,22.68
2017-02-23T12:34:42.036Z,22.7
2017-02-23T12:35:51.214Z,22.75
2017-02-23T12:37:01.576Z,22.78
2017-02-23T12:38:11.569Z,22.8
2017-02-23T12:39:21.516Z,22.69
2017-02-23T12:40:31.477Z,22.68
2017-02-23T12:41:41.046Z,22.72
2017-02-23T12:42:51.002Z,22.7
2017-02-23T12:44:00.185Z,22.8
2017-02-23T12:45:09.346Z,22.78
2017-02-23T12:46:18.925Z,22.85
2017-02-23T12:47:28.485Z,22.9
2017-02-23T12:48:38.447Z,22.94
2017-02-23T12:49:49.197Z,22.99
2017-02-23T12:50:58.903Z,23.05
2017-02-23T12:52:08.478Z,22.99
2017-02-23T12:53:18.442Z,22.96
2017-02-23T12:54:28.363Z,22.68
2017-02-23T12:55:38.084Z,22.62
2017-02-23T12:56:47.618Z,22.54
2017-02-23T12:57:56.814Z,22.45
2017-02-23T12:59:07.128Z,22.29
2017-02-23T13:00:17.040Z,22.26
2017-02-23T13:01:26.633Z,22.18
2017-02-23T13:02:36.582Z,22
2017-02-23T13:03:46.177Z,21.91
2017-02-23T13:04:55.761Z,21.67
2017-02-23T13:06:06.055Z,21.7
2017-02-23T13:07:15.993Z,21.7
2017-02-23T13:08:25.177Z,21.77
2017-02-23T13:09:34.708Z,21.89
2017-02-23T13:10:44.237Z,21.95
2017-02-23T13:11:54.188Z,21.98
2017-02-23T13:13:04.146Z,22.1
2017-02-23T13:14:13.658Z,22.17
2017-02-23T13:15:22.754Z,22.28
2017-02-23T13:16:31.911Z,22.23
2017-02-23T13:17:41.124Z,22.33
2017-02-23T13:18:49.923Z,22.36
2017-02-23T13:19:59.868Z,22.44
2017-02-23T13:21:09.427Z,22.5
2017-02-23T13:22:19.392Z,22.6
2017-02-23T13:23:28.536Z,22.63
2017-02-23T13:24:38.503Z,22.69
2017-02-23T13:25:48.439Z,22.76
2017-02-23T13:26:57.942Z,22.72
2017-02-23T13:28:08.285Z,22.73
2017-02-23T13:29:17.475Z,22.83
2017-02-23T13:30:27.816Z,22.8
2017-02-23T13:31:37.751Z,22.85
2017-02-23T13:32:48.105Z,22.93
2017-02-23T13:33:57.308Z,22.98
2017-02-23T13:35:07.640Z,23
2017-02-23T13:36:16.442Z,23
2017-02-23T13:37:26.373Z,23.05
2017-02-23T13:38:35.975Z,23.02
2017-02-23T13:39:45.551Z,23.08
2017-02-23T13:40:55.124Z,23.13
2017-02-23T13:42:04.657Z,23.15
2017-02-23T13:43:14.999Z,23.12
2017-02-23T13:44:24.572Z,23.27
2017-02-23T13:45:33.754Z,23.15
2017-02-23T13:46:44.119Z,23.21
2017-02-23T13:47:54.483Z,23.23
2017-02-23T13:49:04.014Z,23.24
2017-02-23T13:50:13.951Z,23.28
2017-02-23T13:51:24.301Z,23.34
2017-02-23T13:52:33.839Z,23.28
2017-02-23T13:53:43.349Z,23.43
2017-02-23T13:54:53.269Z,23.4
2017-02-23T13:56:02.400Z,23.39
2017-02-23T13:57:11.953Z,23.4
2017-02-23T13:58:20.736Z,23.34
2017-02-23T13:59:29.920Z,23.43
2017-02-23T14:00:39.508Z,23.43
2017-02-23T21:21:17.269Z,22.23
2017-02-23T21:22:27.222Z,22.28
2017-02-23T21:23:36.797Z,22.29
2017-02-23T21:24:46.755Z,22.29
2017-02-23T21:25:56.704Z,22.3
2017-02-23T21:27:06.617Z,22.33
2017-02-23T21:28:16.487Z,22.3
2017-02-23T21:29:26.426Z,22.28
2017-02-23T21:30:36.337Z,22.26
2017-02-23T21:31:46.290Z,22.3
2017-02-23T21:32:55.485Z,22.29
2017-02-23T21:34:06.253Z,22.26
2017-02-23T21:35:15.433Z,22.3
2017-02-23T21:36:25.396Z,22.38
2017-02-23T21:37:35.353Z,22.35
2017-02-23T21:38:44.948Z,22.41
2017-02-23T21:39:54.126Z,22.38
2017-02-23T21:41:04.073Z,22.39
2017-02-23T21:42:14.405Z,22.41
2017-02-23T21:43:23.574Z,22.36
2017-02-23T21:44:33.153Z,22.36
2017-02-23T21:45:43.092Z,22.36
2017-02-23T21:46:53.010Z,22.39
2017-02-23T21:48:02.166Z,22.41
2017-02-23T21:49:11.735Z,22.38
2017-02-23T21:50:20.953Z,22.32
2017-02-23T21:51:30.914Z,22.36
2017-02-23T21:52:40.477Z,22.41
2017-02-23T21:53:50.292Z,22.47
2017-02-23T21:55:00.247Z,22.38
2017-02-23T21:56:09.435Z,22.38
2017-02-23T21:57:19.726Z,22.33
2017-02-23T21:58:29.615Z,22.43
2017-02-23T21:59:39.146Z,22.36
2017-02-23T22:00:48.711Z,22.39
2017-02-23T22:01:58.271Z,22.41
2017-02-23T22:03:08.226Z,22.39
2017-02-23T22:04:18.130Z,22.44
2017-02-23T22:05:27.861Z,22.41
2017-02-23T22:06:37.031Z,22.33
2017-02-23T22:07:46.602Z,22.38
2017-02-23T22:08:55.411Z,22.38
2017-02-23T22:10:04.548Z,22.44
2017-02-23T22:11:14.056Z,22.35
2017-02-23T22:12:23.584Z,22.33
2017-02-23T22:13:32.789Z,22.38
2017-02-23T22:14:41.962Z,22.39
2017-02-23T22:15:51.890Z,22.41
2017-02-23T22:17:01.025Z,22.39
2017-02-23T22:18:11.348Z,22.28
2017-02-23T22:19:20.529Z,22.39
2017-02-23T22:20:29.327Z,22.33